Impacts METAR Board
IDs:

KCVG - Cincinnati Intl, KY, US

Updated at: 0300 UTC 20 Mar 2019
Potential Impact None Slight Moderate High
Time 19/15Z 19/16Z 19/17Z 19/18Z 19/19Z 19/20Z 19/21Z 19/22Z 19/23Z 20/00Z 20/01Z 20/02Z 20/03Z
Temp42 45 47 49 50 49 52 50 49 46 45 43 40
Dewpt23 21 20 21 18 19 21 20 20 21 21 22 23
Altim30.45 30.46 30.44 30.42 30.39 30.37 30.36 30.34 30.34 30.33 30.33 30.33 30.32
VIS10 10 10 10 10 10 10 10 10 10 10 10 10
CIG300 300 300 300 300 300 300 300 300 300 300 240 250
CoverBKNBKNBKNBKNBKNBKNBKNOVCOVCOVCOVCOVCOVC
FltCatVFRVFRVFRVFRVFRVFRVFRVFRVFRVFRVFRVFRVFR
WX--------------------------
WDir3606028027030019020310330350330350320
WSpd5 5 4 7 6 4 6 4 3 5 6 3 3
WGst-- -- -- -- -- -- -- -- -- -- -- -- --
Raw hourly METARs
KCVG 191452Z 36005KT 10SM BKN300 06/M05 A3045 RMK AO2 SLP315 T00561050 52018
KCVG 191552Z 06005KT 10SM FEW240 BKN300 07/M06 A3046 RMK AO2 SLP316 T00721061
KCVG 191652Z 28004KT 10SM BKN300 08/M07 A3044 RMK AO2 SLP311 T00831067
KCVG 191752Z 27007KT 10SM BKN300 09/M06 A3042 RMK AO2 SLP304 T00941061 10094 21028 58010
KCVG 191852Z 30006KT 10SM BKN300 10/M08 A3039 RMK AO2 SLP294 T01001078
KCVG 191952Z 19004KT 10SM FEW060 BKN300 09/M07 A3037 RMK AO2 SLP288 T00941072
KCVG 192052Z 02006KT 10SM FEW065 BKN300 11/M06 A3036 RMK AO2 SLP282 T01111061 56021
KCVG 192152Z 31004KT 10SM FEW065 FEW240 OVC300 10/M07 A3034 RMK AO2 SLP276 T01001067
KCVG 192252Z 33003KT 10SM FEW250 OVC300 09/M07 A3034 RMK AO2 SLP276 T00941067
KCVG 192352Z 35005KT 10SM SCT250 OVC300 08/M06 A3033 RMK AO2 SLP276 T00781061 10111 20078 56008
KCVG 200052Z 33006KT 10SM SCT250 OVC300 07/M06 A3033 RMK AO2 SLP275 T00721061
KCVG 200152Z 35003KT 10SM BKN240 OVC300 06/M06 A3033 RMK AO2 SLP273 T00611056
KCVG 200252Z 32003KT 10SM BKN250 OVC300 04/M05 A3032 RMK AO2 SLP272 T00441050 58003



Page loaded:  03:59 UTC  |   08:59 PM Pacific  |   09:59 PM Mountain  |   10:59 PM Central  |   11:59 PM Eastern

 

ADVISORIES

FORECASTS

FORECASTS

OBSERVATIONS

USER TOOLS

ABOUT US